sensor_id;sensor_type;location;lat;lon;timestamp;temperature;humidity
43009;DHT22;28634;45.454;11.106;2022-10-16T00:00:58;19.90;64.10
43009;DHT22;28634;45.454;11.106;2022-10-16T00:03:25;20.00;64.20
43009;DHT22;28634;45.454;11.106;2022-10-16T00:05:59;19.90;64.10
43009;DHT22;28634;45.454;11.106;2022-10-16T00:08:27;20.00;64.10
43009;DHT22;28634;45.454;11.106;2022-10-16T00:11:06;19.90;64.20
43009;DHT22;28634;45.454;11.106;2022-10-16T00:13:35;19.90;64.30
43009;DHT22;28634;45.454;11.106;2022-10-16T00:16:03;19.90;64.20
43009;DHT22;28634;45.454;11.106;2022-10-16T00:18:30;19.90;64.10
43009;DHT22;28634;45.454;11.106;2022-10-16T00:21:09;19.90;64.10
43009;DHT22;28634;45.454;11.106;2022-10-16T00:23:37;19.90;63.90
43009;DHT22;28634;45.454;11.106;2022-10-16T00:26:07;19.80;63.80
43009;DHT22;28634;45.454;11.106;2022-10-16T00:28:35;19.80;63.80
43009;DHT22;28634;45.454;11.106;2022-10-16T00:31:07;19.80;63.70
43009;DHT22;28634;45.454;11.106;2022-10-16T00:33:36;19.80;63.60
43009;DHT22;28634;45.454;11.106;2022-10-16T00:36:04;19.80;63.50
43009;DHT22;28634;45.454;11.106;2022-10-16T00:38:31;19.70;62.90
43009;DHT22;28634;45.454;11.106;2022-10-16T00:40:59;19.50;63.20
43009;DHT22;28634;45.454;11.106;2022-10-16T00:43:36;19.40;63.70
43009;DHT22;28634;45.454;11.106;2022-10-16T00:46:31;19.30;64.30
43009;DHT22;28634;45.454;11.106;2022-10-16T00:49:04;19.30;64.40
43009;DHT22;28634;45.454;11.106;2022-10-16T00:51:52;19.30;64.50
43009;DHT22;28634;45.454;11.106;2022-10-16T00:54:24;19.40;64.30
43009;DHT22;28634;45.454;11.106;2022-10-16T00:56:53;19.40;64.30
43009;DHT22;28634;45.454;11.106;2022-10-16T00:59:33;19.40;64.30
43009;DHT22;28634;45.454;11.106;2022-10-16T01:02:03;19.40;64.40
43009;DHT22;28634;45.454;11.106;2022-10-16T01:04:34;19.30;63.80
43009;DHT22;28634;45.454;11.106;2022-10-16T01:12:40;19.30;64.40
43009;DHT22;28634;45.454;11.106;2022-10-16T01:18:23;19.30;64.40
43009;DHT22;28634;45.454;11.106;2022-10-16T01:24:02;19.30;64.30
43009;DHT22;28634;45.454;11.106;2022-10-16T01:29:59;19.30;64.50
43009;DHT22;28634;45.454;11.106;2022-10-16T01:32:33;19.30;64.60
43009;DHT22;28634;45.454;11.106;2022-10-16T01:35:11;19.20;64.50
43009;DHT22;28634;45.454;11.106;2022-10-16T01:37:51;19.30;64.40
43009;DHT22;28634;45.454;11.106;2022-10-16T01:40:20;19.30;64.60
43009;DHT22;28634;45.454;11.106;2022-10-16T01:42:53;19.30;64.60
43009;DHT22;28634;45.454;11.106;2022-10-16T01:45:22;19.20;64.60
43009;DHT22;28634;45.454;11.106;2022-10-16T01:47:49;19.30;64.70
43009;DHT22;28634;45.454;11.106;2022-10-16T01:50:20;19.20;64.70
43009;DHT22;28634;45.454;11.106;2022-10-16T01:52:51;19.20;64.60
43009;DHT22;28634;45.454;11.106;2022-10-16T01:55:24;19.20;64.00
43009;DHT22;28634;45.454;11.106;2022-10-16T01:57:53;19.20;64.50
43009;DHT22;28634;45.454;11.106;2022-10-16T02:00:22;19.10;64.90
43009;DHT22;28634;45.454;11.106;2022-10-16T02:02:52;19.10;65.00
43009;DHT22;28634;45.454;11.106;2022-10-16T02:07:52;19.10;64.90
43009;DHT22;28634;45.454;11.106;2022-10-16T02:10:20;19.10;65.10
43009;DHT22;28634;45.454;11.106;2022-10-16T02:12:57;19.10;65.00
43009;DHT22;28634;45.454;11.106;2022-10-16T02:15:25;19.10;65.00
43009;DHT22;28634;45.454;11.106;2022-10-16T02:17:52;19.10;65.10
43009;DHT22;28634;45.454;11.106;2022-10-16T02:20:25;19.10;65.00
43009;DHT22;28634;45.454;11.106;2022-10-16T02:22:54;19.10;65.00
43009;DHT22;28634;45.454;11.106;2022-10-16T02:25:29;19.10;65.00
43009;DHT22;28634;45.454;11.106;2022-10-16T02:28:26;19.10;65.10
43009;DHT22;28634;45.454;11.106;2022-10-16T02:30:59;19.10;65.00
43009;DHT22;28634;45.454;11.106;2022-10-16T02:33:29;19.00;65.20
43009;DHT22;28634;45.454;11.106;2022-10-16T02:35:57;19.00;65.10
43009;DHT22;28634;45.454;11.106;2022-10-16T02:38:25;19.00;65.10
43009;DHT22;28634;45.454;11.106;2022-10-16T02:40:53;19.00;65.20
43009;DHT22;28634;45.454;11.106;2022-10-16T02:43:21;19.10;65.20
43009;DHT22;28634;45.454;11.106;2022-10-16T02:45:48;19.00;65.20
43009;DHT22;28634;45.454;11.106;2022-10-16T02:48:15;19.00;65.10
43009;DHT22;28634;45.454;11.106;2022-10-16T02:50:42;19.10;65.00
43009;DHT22;28634;45.454;11.106;2022-10-16T02:53:09;19.10;65.10
43009;DHT22;28634;45.454;11.106;2022-10-16T02:55:36;19.10;65.00
43009;DHT22;28634;45.454;11.106;2022-10-16T02:58:03;19.10;64.50
43009;DHT22;28634;45.454;11.106;2022-10-16T03:00:30;19.00;64.70
43009;DHT22;28634;45.454;11.106;2022-10-16T03:02:57;19.00;64.90
43009;DHT22;28634;45.454;11.106;2022-10-16T03:05:24;19.00;64.40
43009;DHT22;28634;45.454;11.106;2022-10-16T03:07:51;18.90;65.10
43009;DHT22;28634;45.454;11.106;2022-10-16T03:10:19;18.80;64.40
43009;DHT22;28634;45.454;11.106;2022-10-16T03:12:46;18.80;65.20
43009;DHT22;28634;45.454;11.106;2022-10-16T03:15:13;18.80;65.50
43009;DHT22;28634;45.454;11.106;2022-10-16T03:17:40;18.90;65.50
43009;DHT22;28634;45.454;11.106;2022-10-16T03:20:07;18.90;65.50
43009;DHT22;28634;45.454;11.106;2022-10-16T03:22:34;18.90;65.60
43009;DHT22;28634;45.454;11.106;2022-10-16T03:25:04;18.90;65.50
43009;DHT22;28634;45.454;11.106;2022-10-16T03:27:31;19.00;65.40
43009;DHT22;28634;45.454;11.106;2022-10-16T03:29:58;19.00;65.40
43009;DHT22;28634;45.454;11.106;2022-10-16T03:32:25;19.00;65.20
43009;DHT22;28634;45.454;11.106;2022-10-16T03:34:52;18.90;64.90
43009;DHT22;28634;45.454;11.106;2022-10-16T03:37:20;18.90;65.10
43009;DHT22;28634;45.454;11.106;2022-10-16T03:39:47;18.90;65.30
43009;DHT22;28634;45.454;11.106;2022-10-16T03:42:14;18.90;65.40
43009;DHT22;28634;45.454;11.106;2022-10-16T03:44:41;18.90;65.40
43009;DHT22;28634;45.454;11.106;2022-10-16T03:47:08;18.90;65.30
43009;DHT22;28634;45.454;11.106;2022-10-16T03:49:35;18.90;65.40
43009;DHT22;28634;45.454;11.106;2022-10-16T03:52:02;18.90;65.30
43009;DHT22;28634;45.454;11.106;2022-10-16T03:54:29;18.90;65.30
43009;DHT22;28634;45.454;11.106;2022-10-16T03:56:56;18.90;65.30
43009;DHT22;28634;45.454;11.106;2022-10-16T03:59:23;18.90;65.30
43009;DHT22;28634;45.454;11.106;2022-10-16T04:01:50;18.90;65.40
43009;DHT22;28634;45.454;11.106;2022-10-16T04:04:17;18.80;65.40
43009;DHT22;28634;45.454;11.106;2022-10-16T04:06:44;18.80;65.30
43009;DHT22;28634;45.454;11.106;2022-10-16T04:09:11;18.80;65.40
43009;DHT22;28634;45.454;11.106;2022-10-16T04:11:38;18.80;65.50
43009;DHT22;28634;45.454;11.106;2022-10-16T04:14:05;18.80;65.40
43009;DHT22;28634;45.454;11.106;2022-10-16T04:16:32;18.80;65.40
43009;DHT22;28634;45.454;11.106;2022-10-16T04:18:59;18.80;65.20
43009;DHT22;28634;45.454;11.106;2022-10-16T04:21:26;18.80;65.30
43009;DHT22;28634;45.454;11.106;2022-10-16T04:23:53;18.80;65.30
43009;DHT22;28634;45.454;11.106;2022-10-16T04:26:20;18.80;65.30
43009;DHT22;28634;45.454;11.106;2022-10-16T04:28:47;18.80;65.20
43009;DHT22;28634;45.454;11.106;2022-10-16T04:31:14;18.70;65.30
43009;DHT22;28634;45.454;11.106;2022-10-16T04:33:44;18.80;65.20
43009;DHT22;28634;45.454;11.106;2022-10-16T04:36:11;18.80;65.30
43009;DHT22;28634;45.454;11.106;2022-10-16T04:38:39;18.80;65.30
43009;DHT22;28634;45.454;11.106;2022-10-16T04:41:06;18.80;65.30
43009;DHT22;28634;45.454;11.106;2022-10-16T04:43:34;18.80;65.30
43009;DHT22;28634;45.454;11.106;2022-10-16T04:46:01;18.70;64.50
43009;DHT22;28634;45.454;11.106;2022-10-16T04:48:28;18.60;65.00
43009;DHT22;28634;45.454;11.106;2022-10-16T04:50:55;18.50;65.30
43009;DHT22;28634;45.454;11.106;2022-10-16T04:53:22;18.50;65.50
43009;DHT22;28634;45.454;11.106;2022-10-16T04:55:50;18.60;65.60
43009;DHT22;28634;45.454;11.106;2022-10-16T04:58:17;18.60;65.50
43009;DHT22;28634;45.454;11.106;2022-10-16T05:00:45;18.60;65.40
43009;DHT22;28634;45.454;11.106;2022-10-16T05:03:13;18.70;65.60
43009;DHT22;28634;45.454;11.106;2022-10-16T05:05:45;18.70;65.60
43009;DHT22;28634;45.454;11.106;2022-10-16T05:08:13;18.70;65.60
43009;DHT22;28634;45.454;11.106;2022-10-16T05:10:42;18.70;65.70
43009;DHT22;28634;45.454;11.106;2022-10-16T05:13:10;18.70;65.60
43009;DHT22;28634;45.454;11.106;2022-10-16T05:15:37;18.70;65.60
43009;DHT22;28634;45.454;11.106;2022-10-16T05:18:04;18.80;65.60
43009;DHT22;28634;45.454;11.106;2022-10-16T05:20:31;18.70;65.70
43009;DHT22;28634;45.454;11.106;2022-10-16T05:22:58;18.70;65.70
43009;DHT22;28634;45.454;11.106;2022-10-16T05:25:25;18.70;65.90
43009;DHT22;28634;45.454;11.106;2022-10-16T05:27:52;18.70;66.10
43009;DHT22;28634;45.454;11.106;2022-10-16T05:30:19;18.70;66.20
43009;DHT22;28634;45.454;11.106;2022-10-16T05:32:48;18.70;66.40
43009;DHT22;28634;45.454;11.106;2022-10-16T05:35:16;18.80;66.60
43009;DHT22;28634;45.454;11.106;2022-10-16T05:37:45;18.80;66.70
43009;DHT22;28634;45.454;11.106;2022-10-16T05:40:12;18.80;66.60
43009;DHT22;28634;45.454;11.106;2022-10-16T05:42:40;18.80;66.90
43009;DHT22;28634;45.454;11.106;2022-10-16T05:45:10;18.80;67.30
43009;DHT22;28634;45.454;11.106;2022-10-16T05:47:37;18.70;67.50
43009;DHT22;28634;45.454;11.106;2022-10-16T05:50:04;18.70;67.60
43009;DHT22;28634;45.454;11.106;2022-10-16T05:52:32;18.70;67.70
43009;DHT22;28634;45.454;11.106;2022-10-16T05:54:59;18.70;68.00
43009;DHT22;28634;45.454;11.106;2022-10-16T05:57:26;18.70;67.60
43009;DHT22;28634;45.454;11.106;2022-10-16T05:59:53;18.70;67.20
43009;DHT22;28634;45.454;11.106;2022-10-16T06:02:20;18.80;67.20
43009;DHT22;28634;45.454;11.106;2022-10-16T06:04:47;18.80;67.30
43009;DHT22;28634;45.454;11.106;2022-10-16T06:07:14;18.80;67.20
43009;DHT22;28634;45.454;11.106;2022-10-16T06:09:41;18.80;67.20
43009;DHT22;28634;45.454;11.106;2022-10-16T06:12:08;18.90;67.00
43009;DHT22;28634;45.454;11.106;2022-10-16T06:14:35;19.00;67.10
43009;DHT22;28634;45.454;11.106;2022-10-16T06:17:02;19.00;67.30
43009;DHT22;28634;45.454;11.106;2022-10-16T06:19:29;19.00;67.20
43009;DHT22;28634;45.454;11.106;2022-10-16T06:21:56;19.10;67.20
43009;DHT22;28634;45.454;11.106;2022-10-16T06:24:25;19.00;67.10
43009;DHT22;28634;45.454;11.106;2022-10-16T06:26:52;19.00;67.10
43009;DHT22;28634;45.454;11.106;2022-10-16T06:29:19;19.10;67.40
43009;DHT22;28634;45.454;11.106;2022-10-16T06:31:46;19.10;67.40
43009;DHT22;28634;45.454;11.106;2022-10-16T06:34:13;19.10;67.40
43009;DHT22;28634;45.454;11.106;2022-10-16T06:36:40;19.10;67.60
43009;DHT22;28634;45.454;11.106;2022-10-16T06:39:08;19.10;68.10
43009;DHT22;28634;45.454;11.106;2022-10-16T06:41:35;19.20;68.20
43009;DHT22;28634;45.454;11.106;2022-10-16T06:44:05;19.20;68.20
43009;DHT22;28634;45.454;11.106;2022-10-16T06:46:33;19.20;68.30
43009;DHT22;28634;45.454;11.106;2022-10-16T06:49:01;19.20;68.20
43009;DHT22;28634;45.454;11.106;2022-10-16T06:51:28;19.20;68.20
43009;DHT22;28634;45.454;11.106;2022-10-16T06:53:55;19.30;68.20
43009;DHT22;28634;45.454;11.106;2022-10-16T06:56:31;19.30;68.20
43009;DHT22;28634;45.454;11.106;2022-10-16T06:58:59;19.30;68.30
43009;DHT22;28634;45.454;11.106;2022-10-16T07:01:29;19.30;68.40
43009;DHT22;28634;45.454;11.106;2022-10-16T07:04:00;19.40;68.60
43009;DHT22;28634;45.454;11.106;2022-10-16T07:06:31;19.40;69.00
43009;DHT22;28634;45.454;11.106;2022-10-16T07:09:01;19.50;69.10
43009;DHT22;28634;45.454;11.106;2022-10-16T07:11:31;19.50;69.40
43009;DHT22;28634;45.454;11.106;2022-10-16T07:13:59;19.50;69.30
43009;DHT22;28634;45.454;11.106;2022-10-16T07:16:28;19.60;69.40
43009;DHT22;28634;45.454;11.106;2022-10-16T07:18:56;19.70;69.20
43009;DHT22;28634;45.454;11.106;2022-10-16T07:21:33;19.70;69.90
43009;DHT22;28634;45.454;11.106;2022-10-16T07:24:11;19.70;70.60
43009;DHT22;28634;45.454;11.106;2022-10-16T07:26:39;19.70;70.00
43009;DHT22;28634;45.454;11.106;2022-10-16T07:29:12;19.60;70.90
43009;DHT22;28634;45.454;11.106;2022-10-16T07:31:40;19.70;71.10
43009;DHT22;28634;45.454;11.106;2022-10-16T07:34:07;19.60;71.10
43009;DHT22;28634;45.454;11.106;2022-10-16T07:36:34;19.70;71.10
43009;DHT22;28634;45.454;11.106;2022-10-16T07:39:01;19.60;70.80
43009;DHT22;28634;45.454;11.106;2022-10-16T07:41:29;19.70;71.40
43009;DHT22;28634;45.454;11.106;2022-10-16T07:43:56;19.70;70.70
43009;DHT22;28634;45.454;11.106;2022-10-16T07:46:27;19.70;70.10
43009;DHT22;28634;45.454;11.106;2022-10-16T07:48:54;19.70;70.50
43009;DHT22;28634;45.454;11.106;2022-10-16T07:51:23;19.70;69.50
43009;DHT22;28634;45.454;11.106;2022-10-16T07:53:51;19.60;68.20
43009;DHT22;28634;45.454;11.106;2022-10-16T07:56:19;19.70;67.50
43009;DHT22;28634;45.454;11.106;2022-10-16T07:58:46;19.70;67.30
43009;DHT22;28634;45.454;11.106;2022-10-16T08:01:15;19.70;67.70
43009;DHT22;28634;45.454;11.106;2022-10-16T08:03:47;19.70;67.80
43009;DHT22;28634;45.454;11.106;2022-10-16T08:06:15;19.70;67.30
43009;DHT22;28634;45.454;11.106;2022-10-16T08:08:43;19.70;67.40
43009;DHT22;28634;45.454;11.106;2022-10-16T08:11:10;19.80;67.80
43009;DHT22;28634;45.454;11.106;2022-10-16T08:13:37;19.80;67.40
43009;DHT22;28634;45.454;11.106;2022-10-16T08:16:05;19.80;67.70
43009;DHT22;28634;45.454;11.106;2022-10-16T08:18:36;19.80;67.70
43009;DHT22;28634;45.454;11.106;2022-10-16T08:21:04;19.80;66.90
43009;DHT22;28634;45.454;11.106;2022-10-16T08:23:32;19.80;66.30
43009;DHT22;28634;45.454;11.106;2022-10-16T08:26:06;19.90;66.20
43009;DHT22;28634;45.454;11.106;2022-10-16T08:28:34;19.90;66.50
43009;DHT22;28634;45.454;11.106;2022-10-16T08:31:07;19.90;66.30
43009;DHT22;28634;45.454;11.106;2022-10-16T08:33:34;19.90;66.30
43009;DHT22;28634;45.454;11.106;2022-10-16T08:36:03;19.90;65.80
43009;DHT22;28634;45.454;11.106;2022-10-16T08:38:31;20.00;65.10
43009;DHT22;28634;45.454;11.106;2022-10-16T08:49:20;20.20;64.40
43009;DHT22;28634;45.454;11.106;2022-10-16T08:51:49;20.20;63.80
43009;DHT22;28634;45.454;11.106;2022-10-16T08:54:42;20.30;63.60
43009;DHT22;28634;45.454;11.106;2022-10-16T08:57:14;20.40;63.20
43009;DHT22;28634;45.454;11.106;2022-10-16T08:59:50;20.40;63.30
43009;DHT22;28634;45.454;11.106;2022-10-16T09:02:39;20.50;62.70
43009;DHT22;28634;45.454;11.106;2022-10-16T09:08:09;20.60;62.10
43009;DHT22;28634;45.454;11.106;2022-10-16T09:21:35;20.90;60.90
43009;DHT22;28634;45.454;11.106;2022-10-16T09:26:40;21.00;60.70
43009;DHT22;28634;45.454;11.106;2022-10-16T09:29:20;21.10;60.40
43009;DHT22;28634;45.454;11.106;2022-10-16T09:31:48;21.20;60.00
43009;DHT22;28634;45.454;11.106;2022-10-16T09:34:32;21.20;59.70
43009;DHT22;28634;45.454;11.106;2022-10-16T09:37:03;21.20;59.20
43009;DHT22;28634;45.454;11.106;2022-10-16T09:39:31;21.30;59.70
43009;DHT22;28634;45.454;11.106;2022-10-16T09:42:17;21.40;58.60
43009;DHT22;28634;45.454;11.106;2022-10-16T09:44:48;21.40;58.70
43009;DHT22;28634;45.454;11.106;2022-10-16T09:47:24;21.50;58.20
43009;DHT22;28634;45.454;11.106;2022-10-16T09:50:13;21.50;58.70
43009;DHT22;28634;45.454;11.106;2022-10-16T09:52:46;21.60;58.30
43009;DHT22;28634;45.454;11.106;2022-10-16T09:55:17;21.60;57.40
43009;DHT22;28634;45.454;11.106;2022-10-16T09:57:56;21.70;57.70
43009;DHT22;28634;45.454;11.106;2022-10-16T10:00:24;21.80;57.60
43009;DHT22;28634;45.454;11.106;2022-10-16T10:02:52;21.80;57.70
43009;DHT22;28634;45.454;11.106;2022-10-16T10:05:27;21.80;58.30
43009;DHT22;28634;45.454;11.106;2022-10-16T10:08:03;22.00;57.70
43009;DHT22;28634;45.454;11.106;2022-10-16T10:10:41;21.90;57.40
43009;DHT22;28634;45.454;11.106;2022-10-16T10:13:21;22.00;57.50
43009;DHT22;28634;45.454;11.106;2022-10-16T10:15:51;22.10;57.90
43009;DHT22;28634;45.454;11.106;2022-10-16T10:18:22;22.20;57.80
43009;DHT22;28634;45.454;11.106;2022-10-16T10:21:03;22.20;57.90
43009;DHT22;28634;45.454;11.106;2022-10-16T10:23:32;22.20;57.70
43009;DHT22;28634;45.454;11.106;2022-10-16T10:26:21;22.20;58.40
43009;DHT22;28634;45.454;11.106;2022-10-16T10:29:47;22.20;59.20
43009;DHT22;28634;45.454;11.106;2022-10-16T10:33:05;22.30;59.20
43009;DHT22;28634;45.454;11.106;2022-10-16T10:41:26;22.50;60.00
43009;DHT22;28634;45.454;11.106;2022-10-16T10:52:59;22.70;59.30
43009;DHT22;28634;45.454;11.106;2022-10-16T11:06:54;22.70;57.90
43009;DHT22;28634;45.454;11.106;2022-10-16T11:09:31;22.80;58.20
43009;DHT22;28634;45.454;11.106;2022-10-16T11:12:20;22.80;57.80
43009;DHT22;28634;45.454;11.106;2022-10-16T11:18:08;22.90;58.30
43009;DHT22;28634;45.454;11.106;2022-10-16T11:20:43;22.80;59.10
43009;DHT22;28634;45.454;11.106;2022-10-16T11:23:30;22.80;58.00
43009;DHT22;28634;45.454;11.106;2022-10-16T11:26:04;22.80;57.40
43009;DHT22;28634;45.454;11.106;2022-10-16T11:28:42;22.90;58.50
43009;DHT22;28634;45.454;11.106;2022-10-16T11:34:21;22.80;58.90
43009;DHT22;28634;45.454;11.106;2022-10-16T11:37:25;22.80;58.50
43009;DHT22;28634;45.454;11.106;2022-10-16T11:39:45;22.70;58.30
43009;DHT22;28634;45.454;11.106;2022-10-16T11:45:36;22.70;58.70
43009;DHT22;28634;45.454;11.106;2022-10-16T11:48:18;22.70;59.00
43009;DHT22;28634;45.454;11.106;2022-10-16T11:51:08;22.50;59.00
43009;DHT22;28634;45.454;11.106;2022-10-16T11:53:59;22.50;59.20
43009;DHT22;28634;45.454;11.106;2022-10-16T11:56:28;22.60;58.90
43009;DHT22;28634;45.454;11.106;2022-10-16T11:59:05;22.60;59.30
43009;DHT22;28634;45.454;11.106;2022-10-16T12:01:42;22.70;59.00
43009;DHT22;28634;45.454;11.106;2022-10-16T12:04:20;22.70;59.20
43009;DHT22;28634;45.454;11.106;2022-10-16T12:09:31;23.00;58.10
43009;DHT22;28634;45.454;11.106;2022-10-16T12:11:59;23.10;57.70
43009;DHT22;28634;45.454;11.106;2022-10-16T12:17:02;23.20;57.20
43009;DHT22;28634;45.454;11.106;2022-10-16T12:19:32;23.20;57.70
43009;DHT22;28634;45.454;11.106;2022-10-16T12:22:01;23.20;57.30
43009;DHT22;28634;45.454;11.106;2022-10-16T12:24:35;23.20;56.90
43009;DHT22;28634;45.454;11.106;2022-10-16T12:27:06;23.20;57.20
43009;DHT22;28634;45.454;11.106;2022-10-16T12:29:46;23.20;56.60
43009;DHT22;28634;45.454;11.106;2022-10-16T12:32:36;23.20;56.70
43009;DHT22;28634;45.454;11.106;2022-10-16T12:35:32;23.20;56.00
43009;DHT22;28634;45.454;11.106;2022-10-16T12:38:19;23.20;56.20
43009;DHT22;28634;45.454;11.106;2022-10-16T12:40:59;23.20;55.50
43009;DHT22;28634;45.454;11.106;2022-10-16T12:43:42;23.10;55.60
43009;DHT22;28634;45.454;11.106;2022-10-16T12:48:39;23.10;56.30
43009;DHT22;28634;45.454;11.106;2022-10-16T12:56:48;23.20;57.00
43009;DHT22;28634;45.454;11.106;2022-10-16T12:59:32;23.20;56.00
43009;DHT22;28634;45.454;11.106;2022-10-16T13:16:40;23.20;55.50
43009;DHT22;28634;45.454;11.106;2022-10-16T13:19:21;23.20;55.60
43009;DHT22;28634;45.454;11.106;2022-10-16T13:21:53;23.30;55.80
43009;DHT22;28634;45.454;11.106;2022-10-16T13:24:48;23.30;56.10
43009;DHT22;28634;45.454;11.106;2022-10-16T13:28:08;23.30;56.10
43009;DHT22;28634;45.454;11.106;2022-10-16T13:30:30;23.40;56.10
43009;DHT22;28634;45.454;11.106;2022-10-16T13:35:30;23.40;55.80
43009;DHT22;28634;45.454;11.106;2022-10-16T13:38:13;23.40;55.90
43009;DHT22;28634;45.454;11.106;2022-10-16T13:41:00;23.50;55.20
43009;DHT22;28634;45.454;11.106;2022-10-16T13:43:51;23.50;55.30
43009;DHT22;28634;45.454;11.106;2022-10-16T13:46:23;23.50;55.80
43009;DHT22;28634;45.454;11.106;2022-10-16T13:49:17;23.60;55.60
43009;DHT22;28634;45.454;11.106;2022-10-16T13:51:55;23.60;55.30
43009;DHT22;28634;45.454;11.106;2022-10-16T13:54:27;23.60;54.90
43009;DHT22;28634;45.454;11.106;2022-10-16T13:57:05;23.70;54.60
43009;DHT22;28634;45.454;11.106;2022-10-16T13:59:53;23.70;54.70
43009;DHT22;28634;45.454;11.106;2022-10-16T14:02:35;23.70;55.80
43009;DHT22;28634;45.454;11.106;2022-10-16T14:05:04;23.70;55.50
43009;DHT22;28634;45.454;11.106;2022-10-16T14:07:36;23.70;54.60
43009;DHT22;28634;45.454;11.106;2022-10-16T14:10:18;23.70;54.60
43009;DHT22;28634;45.454;11.106;2022-10-16T14:13:01;23.60;54.50
43009;DHT22;28634;45.454;11.106;2022-10-16T14:15:30;23.60;54.80
43009;DHT22;28634;45.454;11.106;2022-10-16T14:17:59;23.60;55.00
43009;DHT22;28634;45.454;11.106;2022-10-16T14:20:32;23.60;54.70
43009;DHT22;28634;45.454;11.106;2022-10-16T14:25:46;23.60;54.30
43009;DHT22;28634;45.454;11.106;2022-10-16T14:28:31;23.70;54.20
43009;DHT22;28634;45.454;11.106;2022-10-16T14:31:00;23.60;54.60
43009;DHT22;28634;45.454;11.106;2022-10-16T14:36:27;23.70;54.10
43009;DHT22;28634;45.454;11.106;2022-10-16T14:41:22;23.70;54.10
43009;DHT22;28634;45.454;11.106;2022-10-16T14:43:55;23.70;53.80
43009;DHT22;28634;45.454;11.106;2022-10-16T14:46:33;23.70;53.90
43009;DHT22;28634;45.454;11.106;2022-10-16T14:49:21;23.60;54.30
43009;DHT22;28634;45.454;11.106;2022-10-16T14:51:50;23.50;55.20
43009;DHT22;28634;45.454;11.106;2022-10-16T14:54:21;23.50;54.60
43009;DHT22;28634;45.454;11.106;2022-10-16T14:56:54;23.50;55.40
43009;DHT22;28634;45.454;11.106;2022-10-16T14:59:40;23.50;55.50
43009;DHT22;28634;45.454;11.106;2022-10-16T15:04:46;23.60;55.00
43009;DHT22;28634;45.454;11.106;2022-10-16T15:07:15;23.60;54.80
43009;DHT22;28634;45.454;11.106;2022-10-16T15:09:42;23.50;55.40
43009;DHT22;28634;45.454;11.106;2022-10-16T15:12:15;23.50;55.40
43009;DHT22;28634;45.454;11.106;2022-10-16T15:14:43;23.40;55.50
43009;DHT22;28634;45.454;11.106;2022-10-16T15:17:11;23.40;55.80
43009;DHT22;28634;45.454;11.106;2022-10-16T15:19:38;23.40;56.10
43009;DHT22;28634;45.454;11.106;2022-10-16T15:22:05;23.30;56.60
43009;DHT22;28634;45.454;11.106;2022-10-16T15:24:34;23.30;56.90
43009;DHT22;28634;45.454;11.106;2022-10-16T15:27:01;23.30;57.50
43009;DHT22;28634;45.454;11.106;2022-10-16T15:29:28;23.30;57.80
43009;DHT22;28634;45.454;11.106;2022-10-16T15:31:55;23.30;57.30
43009;DHT22;28634;45.454;11.106;2022-10-16T15:34:22;23.30;57.60
43009;DHT22;28634;45.454;11.106;2022-10-16T15:36:49;23.30;58.50
43009;DHT22;28634;45.454;11.106;2022-10-16T15:39:19;23.20;58.70
43009;DHT22;28634;45.454;11.106;2022-10-16T15:41:47;23.20;59.50
43009;DHT22;28634;45.454;11.106;2022-10-16T15:44:20;23.20;59.60
43009;DHT22;28634;45.454;11.106;2022-10-16T15:46:49;23.10;59.10
43009;DHT22;28634;45.454;11.106;2022-10-16T15:49:17;23.10;59.70
43009;DHT22;28634;45.454;11.106;2022-10-16T15:51:44;23.10;59.60
43009;DHT22;28634;45.454;11.106;2022-10-16T15:54:12;23.10;59.10
43009;DHT22;28634;45.454;11.106;2022-10-16T15:56:39;23.00;59.30
43009;DHT22;28634;45.454;11.106;2022-10-16T15:59:07;23.00;59.00
43009;DHT22;28634;45.454;11.106;2022-10-16T16:01:38;23.00;59.40
43009;DHT22;28634;45.454;11.106;2022-10-16T16:04:05;23.00;59.50
43009;DHT22;28634;45.454;11.106;2022-10-16T16:06:51;22.90;59.50
43009;DHT22;28634;45.454;11.106;2022-10-16T16:09:18;22.90;59.90
43009;DHT22;28634;45.454;11.106;2022-10-16T16:11:45;22.90;59.90
43009;DHT22;28634;45.454;11.106;2022-10-16T16:14:17;22.90;60.00
43009;DHT22;28634;45.454;11.106;2022-10-16T16:16:44;22.80;60.10
43009;DHT22;28634;45.454;11.106;2022-10-16T16:19:11;22.80;60.20
43009;DHT22;28634;45.454;11.106;2022-10-16T16:21:44;22.70;60.20
43009;DHT22;28634;45.454;11.106;2022-10-16T16:24:11;22.70;60.00
43009;DHT22;28634;45.454;11.106;2022-10-16T16:26:39;22.70;60.00
43009;DHT22;28634;45.454;11.106;2022-10-16T16:29:12;22.60;60.00
43009;DHT22;28634;45.454;11.106;2022-10-16T16:31:41;22.60;59.90
43009;DHT22;28634;45.454;11.106;2022-10-16T16:34:09;22.50;60.20
43009;DHT22;28634;45.454;11.106;2022-10-16T16:36:38;22.40;60.10
43009;DHT22;28634;45.454;11.106;2022-10-16T16:39:07;22.40;60.20
43009;DHT22;28634;45.454;11.106;2022-10-16T16:41:34;22.30;60.20
43009;DHT22;28634;45.454;11.106;2022-10-16T16:44:06;22.30;60.20
43009;DHT22;28634;45.454;11.106;2022-10-16T16:46:35;22.20;60.20
43009;DHT22;28634;45.454;11.106;2022-10-16T16:49:03;22.20;60.20
43009;DHT22;28634;45.454;11.106;2022-10-16T16:51:30;22.20;60.20
43009;DHT22;28634;45.454;11.106;2022-10-16T16:54:01;22.10;60.40
43009;DHT22;28634;45.454;11.106;2022-10-16T16:56:28;22.10;60.50
43009;DHT22;28634;45.454;11.106;2022-10-16T16:58:56;22.00;60.60
43009;DHT22;28634;45.454;11.106;2022-10-16T17:01:25;22.00;60.70
43009;DHT22;28634;45.454;11.106;2022-10-16T17:03:55;22.00;60.70
43009;DHT22;28634;45.454;11.106;2022-10-16T17:06:24;22.00;60.80
43009;DHT22;28634;45.454;11.106;2022-10-16T17:08:53;21.90;60.80
43009;DHT22;28634;45.454;11.106;2022-10-16T17:11:25;21.80;60.80
43009;DHT22;28634;45.454;11.106;2022-10-16T17:13:54;21.80;60.90
43009;DHT22;28634;45.454;11.106;2022-10-16T17:16:28;21.80;60.90
43009;DHT22;28634;45.454;11.106;2022-10-16T17:18:59;21.80;60.90
43009;DHT22;28634;45.454;11.106;2022-10-16T17:21:27;21.80;60.40
43009;DHT22;28634;45.454;11.106;2022-10-16T17:23:56;21.70;60.80
43009;DHT22;28634;45.454;11.106;2022-10-16T17:26:23;21.70;61.10
43009;DHT22;28634;45.454;11.106;2022-10-16T17:28:55;21.60;61.20
43009;DHT22;28634;45.454;11.106;2022-10-16T17:31:28;21.60;61.30
43009;DHT22;28634;45.454;11.106;2022-10-16T17:33:57;21.60;61.50
43009;DHT22;28634;45.454;11.106;2022-10-16T17:36:25;21.50;61.40
43009;DHT22;28634;45.454;11.106;2022-10-16T17:38:58;21.50;61.40
43009;DHT22;28634;45.454;11.106;2022-10-16T17:41:29;21.50;61.40